createdAt,value
2018-10-21T00:01:41.770Z,74.14
2018-10-21T00:04:10.441Z,73.82
2018-10-21T00:06:39.352Z,73.94
2018-10-21T00:09:10.558Z,74.24
2018-10-21T00:11:39.561Z,74.14
2018-10-21T00:14:09.054Z,74.55
2018-10-21T00:16:37.534Z,74.07
2018-10-21T00:19:06.605Z,74.61
2018-10-21T00:21:35.118Z,74.54
2018-10-21T00:24:03.950Z,74.66
2018-10-21T00:26:32.924Z,74.82
2018-10-21T00:29:01.447Z,74.85
2018-10-21T00:31:29.964Z,74.90
2018-10-21T00:33:59.379Z,74.69
2018-10-21T00:36:28.526Z,74.80
2018-10-21T00:38:56.964Z,74.90
2018-10-21T00:41:25.510Z,74.67
2018-10-21T00:43:54.054Z,74.61
2018-10-21T00:46:22.987Z,74.83
2018-10-21T00:48:51.971Z,74.67
2018-10-21T00:51:20.444Z,75.25
2018-10-21T00:53:49.469Z,74.89
2018-10-21T00:56:18.206Z,74.78
2018-10-21T00:58:46.669Z,75.28
2018-10-21T01:01:15.377Z,75.18
2018-10-21T01:03:44.572Z,75.08
2018-10-21T01:06:14.036Z,75.00
2018-10-21T01:08:42.784Z,75.18
2018-10-21T01:11:11.487Z,75.74
2018-10-21T01:13:39.948Z,75.45
2018-10-21T01:16:08.556Z,75.16
2018-10-21T01:18:37.207Z,75.28
2018-10-21T01:21:05.999Z,74.95
2018-10-21T01:23:34.482Z,75.23
2018-10-21T01:26:03.106Z,75.48
2018-10-21T01:28:31.589Z,75.25
2018-10-21T01:31:00.744Z,75.36
2018-10-21T01:33:29.213Z,75.19
2018-10-21T01:35:57.863Z,75.24
2018-10-21T01:38:26.594Z,75.19
2018-10-21T01:40:56.608Z,75.29
2018-10-21T01:43:27.488Z,75.57
2018-10-21T01:45:56.279Z,75.79
2018-10-21T01:48:26.179Z,75.32
2018-10-21T01:50:54.962Z,75.73
2018-10-21T01:53:23.975Z,75.57
2018-10-21T01:55:52.448Z,75.53
2018-10-21T01:58:20.924Z,75.65
2018-10-21T02:00:50.354Z,75.65
2018-10-21T02:03:18.927Z,75.90
2018-10-21T02:05:47.965Z,75.73
2018-10-21T02:08:16.498Z,75.72
2018-10-21T02:10:44.941Z,75.70
2018-10-21T02:13:14.511Z,75.69
2018-10-21T02:15:43.090Z,75.60
2018-10-21T02:18:11.536Z,75.87
2018-10-21T02:20:40.072Z,75.83
2018-10-21T02:23:08.705Z,75.89
2018-10-21T02:25:37.361Z,75.83
2018-10-21T02:28:05.951Z,75.73
2018-10-21T02:30:34.441Z,75.49
2018-10-21T02:33:03.129Z,75.47
2018-10-21T02:35:31.515Z,75.34
2018-10-21T02:38:00.125Z,75.64
2018-10-21T02:41:46.437Z,75.55
2018-10-21T02:44:20.434Z,74.91
2018-10-21T02:46:49.706Z,75.25
2018-10-21T02:49:18.696Z,75.47
2018-10-21T02:51:52.659Z,75.71
2018-10-21T02:54:25.480Z,75.65
2018-10-21T02:56:54.207Z,75.85
2018-10-21T02:59:24.024Z,75.36
2018-10-21T03:01:52.925Z,75.50
2018-10-21T03:04:21.941Z,75.50
2018-10-21T03:06:50.935Z,75.36
2018-10-21T03:09:19.671Z,75.65
2018-10-21T03:11:48.176Z,75.99
2018-10-21T03:14:17.068Z,75.61
2018-10-21T03:16:45.561Z,75.62
2018-10-21T03:19:14.118Z,75.23
2018-10-21T03:21:42.812Z,75.23
2018-10-21T03:24:11.283Z,75.22
2018-10-21T03:26:39.805Z,75.19
2018-10-21T03:29:08.318Z,75.28
2018-10-21T03:31:37.147Z,75.62
2018-10-21T03:34:06.504Z,75.32
2018-10-21T03:36:34.901Z,75.74
2018-10-21T03:39:04.939Z,75.84
2018-10-21T03:41:33.480Z,75.94
2018-10-21T03:44:02.139Z,75.96
2018-10-21T03:46:30.824Z,76.02
2018-10-21T03:48:59.595Z,75.98
2018-10-21T03:51:28.237Z,75.83
2018-10-21T03:53:57.772Z,76.02
2018-10-21T03:56:26.237Z,76.18
2018-10-21T03:58:54.860Z,75.85
2018-10-21T04:01:23.351Z,75.92
2018-10-21T04:03:51.933Z,75.58
2018-10-21T04:06:21.114Z,76.05
2018-10-21T04:08:49.522Z,75.96
2018-10-21T04:11:18.956Z,75.78
2018-10-21T04:13:47.779Z,76.16
2018-10-21T04:16:16.511Z,76.21
2018-10-21T04:18:45.775Z,76.13
2018-10-21T04:21:14.255Z,75.88
2018-10-21T04:23:42.851Z,76.33
2018-10-21T04:26:11.427Z,76.18
2018-10-21T04:28:39.975Z,76.17
2018-10-21T04:31:08.719Z,76.40
2018-10-21T04:33:40.438Z,76.23
2018-10-21T04:53:25.637Z,76.10
2018-10-21T04:55:54.069Z,76.36
2018-10-21T04:58:22.646Z,76.66
2018-10-21T05:00:51.643Z,76.59
2018-10-21T05:03:20.826Z,76.92
2018-10-21T05:05:56.223Z,76.77
2018-10-21T05:08:24.879Z,76.52
2018-10-21T05:10:53.541Z,76.56
2018-10-21T05:13:22.102Z,76.72
2018-10-21T05:15:51.036Z,76.68
2018-10-21T05:18:19.480Z,77.07
2018-10-21T05:20:48.768Z,76.97
2018-10-21T05:23:17.300Z,77.07
2018-10-21T05:25:45.820Z,76.64
2018-10-21T05:28:14.357Z,76.77
2018-10-21T05:30:43.726Z,76.79
2018-10-21T05:33:12.207Z,76.69
2018-10-21T05:35:40.814Z,77.09
2018-10-21T05:38:09.317Z,77.07
2018-10-21T05:40:38.100Z,77.23
2018-10-21T05:43:06.951Z,77.43
2018-10-21T05:45:35.508Z,77.29
2018-10-21T05:48:06.095Z,77.32
2018-10-21T05:50:34.719Z,77.00
2018-10-21T05:53:03.331Z,77.37
2018-10-21T05:55:32.077Z,77.17
2018-10-21T05:58:01.331Z,77.21
2018-10-21T06:00:30.553Z,77.31
2018-10-21T06:02:59.161Z,77.38
2018-10-21T06:05:40.176Z,77.25
2018-10-21T06:08:09.235Z,76.84
2018-10-21T06:10:37.836Z,77.00
2018-10-21T06:13:06.864Z,77.24
2018-10-21T06:15:35.509Z,77.13
2018-10-21T06:18:04.924Z,76.90
2018-10-21T06:20:40.072Z,77.15
2018-10-21T06:23:09.126Z,77.21
2018-10-21T06:25:38.470Z,77.17
2018-10-21T06:28:13.584Z,77.09
2018-10-21T06:30:42.070Z,77.18
2018-10-21T06:33:10.640Z,76.60
2018-10-21T06:35:39.197Z,76.65
2018-10-21T06:38:07.936Z,76.38
2018-10-21T06:40:37.249Z,76.32
2018-10-21T06:43:06.508Z,76.09
2018-10-21T06:45:35.208Z,75.96
2018-10-21T06:48:03.901Z,76.02
2018-10-21T06:50:32.464Z,76.06
2018-10-21T06:53:01.106Z,76.32
2018-10-21T06:55:29.627Z,76.38
2018-10-21T06:57:58.281Z,76.02
2018-10-21T07:00:26.786Z,76.35
2018-10-21T07:02:55.295Z,76.24
2018-10-21T07:05:35.072Z,75.91
2018-10-21T07:08:03.591Z,76.02
2018-10-21T07:10:32.019Z,76.90
2018-10-21T07:13:00.648Z,76.22
2018-10-21T07:15:29.163Z,76.41
2018-10-21T07:17:57.620Z,76.19
2018-10-21T07:20:26.173Z,76.12
2018-10-21T07:22:54.701Z,76.04
2018-10-21T07:25:23.297Z,75.99
2018-10-21T07:27:51.720Z,75.96
2018-10-21T07:30:20.575Z,75.73
2018-10-21T07:32:49.012Z,75.90
2018-10-21T07:35:17.586Z,76.09
2018-10-21T07:37:46.226Z,75.79
2018-10-21T07:40:14.822Z,75.59
2018-10-21T07:42:43.521Z,75.92
2018-10-21T07:45:12.936Z,76.00
2018-10-21T07:47:41.520Z,75.99
2018-10-21T07:50:10.210Z,76.27
2018-10-21T07:52:38.652Z,76.19
2018-10-21T07:55:09.491Z,76.16
2018-10-21T07:57:38.134Z,76.37
2018-10-21T08:00:06.736Z,76.11
2018-10-21T08:02:35.408Z,75.97
2018-10-21T08:05:04.596Z,76.12
2018-10-21T08:07:44.327Z,76.48
2018-10-21T08:10:13.271Z,76.18
2018-10-21T08:12:41.829Z,76.30
2018-10-21T08:15:10.410Z,76.09
2018-10-21T08:17:38.970Z,76.35
2018-10-21T08:20:07.780Z,76.51
2018-10-21T08:22:36.310Z,76.41
2018-10-21T08:25:05.288Z,76.43
2018-10-21T08:27:34.024Z,76.50
2018-10-21T08:30:02.479Z,76.52
2018-10-21T08:32:31.135Z,76.01
2018-10-21T08:34:59.601Z,76.19
2018-10-21T08:37:28.354Z,76.36
2018-10-21T08:39:56.828Z,76.18
2018-10-21T08:42:25.444Z,76.21
2018-10-21T08:44:54.625Z,76.19
2018-10-21T08:47:23.629Z,75.89
2018-10-21T08:49:52.522Z,76.03
2018-10-21T08:52:21.526Z,75.83
2018-10-21T08:54:50.321Z,75.27
2018-10-21T08:57:19.009Z,75.36
2018-10-21T08:59:47.444Z,75.36
2018-10-21T09:02:15.950Z,74.52
2018-10-21T09:04:44.624Z,74.91
2018-10-21T09:07:13.368Z,74.83
2018-10-21T09:09:41.933Z,73.85
2018-10-21T09:12:10.637Z,73.79
2018-10-21T09:14:39.108Z,74.10
2018-10-21T09:17:07.805Z,74.03
2018-10-21T09:19:36.293Z,73.64
2018-10-21T09:22:11.747Z,73.22
2018-10-21T09:24:40.168Z,72.73
2018-10-21T09:27:08.938Z,72.62
2018-10-21T09:29:37.407Z,72.56
2018-10-21T09:32:05.994Z,72.31
2018-10-21T09:34:34.497Z,72.43
2018-10-21T09:37:03.173Z,71.50
2018-10-21T09:39:31.865Z,71.36
2018-10-21T09:42:00.459Z,70.97
2018-10-21T09:44:28.993Z,70.96
2018-10-21T09:46:57.618Z,70.81
2018-10-21T09:49:26.626Z,69.95
2018-10-21T09:51:55.135Z,69.60
2018-10-21T09:54:23.719Z,69.43
2018-10-21T09:56:52.274Z,68.80
2018-10-21T09:59:20.863Z,68.34
2018-10-21T10:01:54.714Z,68.69
2018-10-21T10:04:23.207Z,67.98
2018-10-21T10:06:52.048Z,67.93
2018-10-21T10:11:48.249Z,66.78
2018-10-21T10:14:16.834Z,65.87
2018-10-21T10:16:45.316Z,66.17
2018-10-21T10:19:13.895Z,65.35
2018-10-21T10:21:42.336Z,65.03
2018-10-21T10:24:10.911Z,63.24
2018-10-21T10:26:39.431Z,63.32
2018-10-21T10:29:08.123Z,64.29
2018-10-21T10:31:36.854Z,63.72
2018-10-21T10:34:05.606Z,63.48
2018-10-21T10:36:34.176Z,62.90
2018-10-21T10:39:09.801Z,62.70
2018-10-21T10:41:38.578Z,62.08
2018-10-21T10:44:07.219Z,61.11
2018-10-21T10:46:36.391Z,61.85
2018-10-21T10:49:05.375Z,61.08
2018-10-21T10:51:33.899Z,60.39
2018-10-21T10:54:02.729Z,59.69
2018-10-21T10:56:31.368Z,59.67
2018-10-21T10:58:59.968Z,58.76
2018-10-21T11:01:28.674Z,58.97
2018-10-21T11:03:57.508Z,58.49
2018-10-21T11:06:26.387Z,57.37
2018-10-21T11:08:55.161Z,57.08
2018-10-21T11:11:23.683Z,57.13
2018-10-21T11:13:52.303Z,55.95
2018-10-21T11:16:21.274Z,55.46
2018-10-21T11:18:49.888Z,54.22
2018-10-21T11:21:18.413Z,53.61
2018-10-21T11:23:47.584Z,53.65
2018-10-21T11:26:16.158Z,52.80
2018-10-21T11:28:44.683Z,52.35
2018-10-21T11:31:13.436Z,51.27
2018-10-21T11:33:41.890Z,51.43
2018-10-21T11:36:10.451Z,51.00
2018-10-21T11:38:39.322Z,49.32
2018-10-21T11:41:07.945Z,48.52
2018-10-21T11:43:36.715Z,47.83
2018-10-21T11:46:05.311Z,47.47
2018-10-21T11:48:33.727Z,47.09
2018-10-21T11:51:03.152Z,47.13
2018-10-21T11:53:33.271Z,46.77
2018-10-21T11:56:02.318Z,46.11
2018-10-21T11:58:31.054Z,45.86
2018-10-21T12:00:59.739Z,45.79
2018-10-21T12:03:28.330Z,45.98
2018-10-21T12:05:57.511Z,45.43
2018-10-21T12:08:26.130Z,44.32
2018-10-21T12:10:54.924Z,44.27
2018-10-21T12:13:24.566Z,43.83
2018-10-21T12:15:53.097Z,43.15
2018-10-21T12:18:21.813Z,43.35
2018-10-21T12:20:50.588Z,43.31
2018-10-21T12:23:19.198Z,43.98
2018-10-21T12:25:47.992Z,42.15
2018-10-21T12:28:16.673Z,42.89
2018-10-21T12:30:45.137Z,42.55
2018-10-21T12:33:13.703Z,42.21
2018-10-21T12:35:42.225Z,42.44
2018-10-21T12:38:11.332Z,40.72
2018-10-21T12:40:39.757Z,41.21
2018-10-21T12:43:08.313Z,40.64
2018-10-21T12:45:36.974Z,40.69
2018-10-21T12:48:05.911Z,40.57
2018-10-21T12:50:34.592Z,40.18
2018-10-21T12:53:03.066Z,39.96
2018-10-21T12:55:31.690Z,39.79
2018-10-21T12:58:03.355Z,39.41
2018-10-21T13:00:31.871Z,39.66
2018-10-21T13:03:00.437Z,38.68
2018-10-21T13:05:29.886Z,39.90
2018-10-21T13:07:58.361Z,39.53
2018-10-21T13:10:26.952Z,38.88
2018-10-21T13:12:55.566Z,38.53
2018-10-21T13:15:24.069Z,39.44
2018-10-21T13:17:52.737Z,39.21
2018-10-21T13:20:21.444Z,39.25
2018-10-21T13:22:49.996Z,38.38
2018-10-21T13:25:18.557Z,38.10
2018-10-21T13:27:47.029Z,37.93
2018-10-21T13:30:15.632Z,38.79
2018-10-21T13:32:44.148Z,38.64
2018-10-21T13:35:12.728Z,38.00
2018-10-21T13:37:41.182Z,38.04
2018-10-21T13:40:09.810Z,37.29
2018-10-21T13:42:38.460Z,37.79
2018-10-21T13:45:07.468Z,37.57
2018-10-21T13:47:36.272Z,38.85
2018-10-21T13:50:06.153Z,38.87
2018-10-21T13:52:34.676Z,37.67
2018-10-21T13:55:03.307Z,36.62
2018-10-21T13:57:31.846Z,34.68
2018-10-21T14:00:00.450Z,34.21
2018-10-21T14:02:28.914Z,31.83
2018-10-21T14:04:57.437Z,31.65
2018-10-21T14:07:26.095Z,32.55
2018-10-21T14:09:54.829Z,32.44
2018-10-21T14:12:23.355Z,33.45
2018-10-21T14:14:51.920Z,35.72
2018-10-21T14:17:20.814Z,37.18
2018-10-21T14:19:49.483Z,38.02
2018-10-21T14:22:18.251Z,38.42
2018-10-21T14:24:46.881Z,39.81
2018-10-21T14:27:15.715Z,39.38
2018-10-21T14:29:44.764Z,40.24
2018-10-21T14:32:15.095Z,40.55
2018-10-21T14:34:44.529Z,41.02
2018-10-21T14:37:14.529Z,41.26
2018-10-21T14:39:43.417Z,40.82
2018-10-21T14:42:12.007Z,41.66
2018-10-21T14:44:41.234Z,42.10
2018-10-21T14:47:09.930Z,41.59
2018-10-21T14:49:38.521Z,42.75
2018-10-21T14:52:07.320Z,42.89
2018-10-21T14:54:35.949Z,42.37
2018-10-21T14:57:04.550Z,42.91
2018-10-21T14:59:33.056Z,43.66
2018-10-21T15:02:01.891Z,43.29
2018-10-21T15:04:31.031Z,44.35
2018-10-21T15:07:00.287Z,44.28
2018-10-21T15:09:29.200Z,44.01
2018-10-21T15:11:57.866Z,45.08
2018-10-21T15:14:26.417Z,44.44
2018-10-21T15:16:55.189Z,44.72
2018-10-21T15:19:24.344Z,44.90
2018-10-21T15:21:52.937Z,45.63
2018-10-21T15:24:22.140Z,45.44
2018-10-21T15:26:50.857Z,45.71
2018-10-21T15:29:19.557Z,45.74
2018-10-21T15:31:49.269Z,45.37
2018-10-21T15:34:17.955Z,45.94
2018-10-21T15:36:46.405Z,46.51
2018-10-21T15:39:14.990Z,46.93
2018-10-21T15:41:43.759Z,46.99
2018-10-21T15:44:12.284Z,46.76
2018-10-21T15:46:54.301Z,46.71
2018-10-21T15:51:56.496Z,47.76
2018-10-21T15:54:25.066Z,47.32
2018-10-21T15:56:53.641Z,47.73
2018-10-21T15:59:22.175Z,48.71
2018-10-21T16:01:50.820Z,49.09
2018-10-21T16:04:19.403Z,48.91
2018-10-21T16:06:47.924Z,49.01
2018-10-21T16:09:18.415Z,49.44
2018-10-21T16:11:51.084Z,50.18
2018-10-21T16:14:22.621Z,49.52
2018-10-21T16:16:51.769Z,49.69
2018-10-21T16:19:29.166Z,50.46
2018-10-21T16:22:02.722Z,50.71
2018-10-21T16:24:40.617Z,50.42
2018-10-21T16:27:21.900Z,50.93
2018-10-21T16:29:57.365Z,50.88
2018-10-21T16:32:30.153Z,51.64
2018-10-21T16:35:01.507Z,52.08
2018-10-21T16:37:33.120Z,51.83
2018-10-21T16:40:10.918Z,52.47
2018-10-21T16:42:42.812Z,52.11
2018-10-21T16:45:12.540Z,52.46
2018-10-21T16:47:41.482Z,53.10
2018-10-21T16:50:15.863Z,53.41
2018-10-21T16:52:46.649Z,52.88
2018-10-21T16:55:18.257Z,53.42
2018-10-21T16:57:54.272Z,53.53
2018-10-21T17:00:23.466Z,53.13
2018-10-21T17:02:54.123Z,54.23
2018-10-21T17:05:22.916Z,54.04
2018-10-21T17:08:02.701Z,54.23
2018-10-21T17:10:41.674Z,54.49
2018-10-21T17:13:14.112Z,54.47
2018-10-21T17:15:43.655Z,54.49
2018-10-21T17:18:13.879Z,54.37
2018-10-21T17:20:51.591Z,55.40
2018-10-21T17:23:29.918Z,55.12
2018-10-21T17:25:58.726Z,55.09
2018-10-21T17:28:27.173Z,55.24
2018-10-21T17:33:53.656Z,56.02
2018-10-21T17:36:31.571Z,56.59
2018-10-21T17:39:03.241Z,56.19
2018-10-21T17:41:31.739Z,57.01
2018-10-21T17:44:03.104Z,56.39
2018-10-21T17:46:35.682Z,56.97
2018-10-21T17:49:04.468Z,57.51
2018-10-21T18:09:13.405Z,58.24
2018-10-21T18:11:43.782Z,58.42
2018-10-21T18:14:15.136Z,58.59
2018-10-21T18:16:44.066Z,59.03
2018-10-21T18:19:27.159Z,58.84
2018-10-21T18:21:59.266Z,59.03
2018-10-21T18:24:28.229Z,59.20
2018-10-21T18:26:57.127Z,59.28
2018-10-21T18:29:35.197Z,59.49
2018-10-21T18:32:24.418Z,59.58
2018-10-21T18:34:53.115Z,59.97
2018-10-21T18:37:21.671Z,59.63
2018-10-21T18:39:51.154Z,60.12
2018-10-21T18:42:20.035Z,60.21
2018-10-21T18:44:48.693Z,60.41
2018-10-21T18:47:17.571Z,60.60
2018-10-21T18:49:46.374Z,60.55
2018-10-21T18:52:15.375Z,60.89
2018-10-21T18:54:43.768Z,61.05
2018-10-21T18:57:12.641Z,60.90
2018-10-21T18:59:41.286Z,61.17
2018-10-21T19:02:10.261Z,61.21
2018-10-21T19:04:38.920Z,61.38
2018-10-21T19:07:08.446Z,61.10
2018-10-21T19:09:37.441Z,61.60
2018-10-21T19:12:06.497Z,61.44
2018-10-21T19:14:35.130Z,61.74
2018-10-21T19:17:03.717Z,62.44
2018-10-21T19:19:32.403Z,62.02
2018-10-21T19:22:01.084Z,62.04
2018-10-21T19:24:29.604Z,62.13
2018-10-21T19:26:58.808Z,61.99
2018-10-21T19:29:27.722Z,62.42
2018-10-21T19:31:56.424Z,62.80
2018-10-21T19:34:24.974Z,62.47
2018-10-21T19:36:53.428Z,62.34
2018-10-21T19:39:28.758Z,62.49
2018-10-21T19:41:57.288Z,62.71
2018-10-21T19:44:25.995Z,62.60
2018-10-21T19:46:54.732Z,62.96
2018-10-21T19:49:24.189Z,62.73
2018-10-21T19:51:53.039Z,63.00
2018-10-21T19:54:21.622Z,62.80
2018-10-21T19:56:51.064Z,62.33
2018-10-21T19:59:20.021Z,62.89
2018-10-21T20:01:49.089Z,62.87
2018-10-21T20:04:17.673Z,62.68
2018-10-21T20:06:46.350Z,62.73
2018-10-21T20:09:15.176Z,62.94
2018-10-21T20:11:44.156Z,63.20
2018-10-21T20:14:12.769Z,63.04
2018-10-21T20:16:41.579Z,63.12
2018-10-21T20:19:10.961Z,63.19
2018-10-21T20:21:39.522Z,63.30
2018-10-21T20:24:08.130Z,63.29
2018-10-21T20:26:36.847Z,63.55
2018-10-21T20:29:05.707Z,63.52
2018-10-21T20:31:34.310Z,63.51
2018-10-21T20:34:03.226Z,63.71
2018-10-21T20:36:31.709Z,63.65
2018-10-21T20:39:00.322Z,64.01
2018-10-21T20:41:29.042Z,64.07
2018-10-21T20:43:57.672Z,63.98
2018-10-21T20:46:26.124Z,64.58
2018-10-21T20:48:54.854Z,64.11
2018-10-21T20:51:23.605Z,64.33
2018-10-21T20:53:52.576Z,64.39
2018-10-21T20:56:21.439Z,64.79
2018-10-21T20:58:50.100Z,64.44
2018-10-21T21:01:18.598Z,64.18
2018-10-21T21:03:47.239Z,64.94
2018-10-21T21:06:15.859Z,64.87
2018-10-21T21:08:44.535Z,64.67
2018-10-21T21:11:13.117Z,64.76
2018-10-21T21:13:41.673Z,64.76
2018-10-21T21:16:10.248Z,65.00
2018-10-21T21:18:38.861Z,65.17
2018-10-21T21:21:08.086Z,65.05
2018-10-21T21:23:36.809Z,64.99
2018-10-21T21:26:05.460Z,65.01
2018-10-21T21:28:34.280Z,65.32
2018-10-21T21:31:02.904Z,64.94
2018-10-21T21:33:31.513Z,65.05
2018-10-21T21:36:00.326Z,65.15
2018-10-21T21:38:28.980Z,65.59
2018-10-21T21:40:58.251Z,65.79
2018-10-21T21:43:26.861Z,65.53
2018-10-21T21:45:55.775Z,65.42
2018-10-21T21:48:24.389Z,66.07
2018-10-21T21:50:53.048Z,66.10
2018-10-21T21:53:21.791Z,66.18
2018-10-21T21:55:50.381Z,65.91
2018-10-21T21:58:18.848Z,66.14
2018-10-21T22:00:48.155Z,66.16
2018-10-21T22:03:16.705Z,66.20
2018-10-21T22:05:45.195Z,65.97
2018-10-21T22:08:13.898Z,65.95
2018-10-21T22:10:42.616Z,65.75
2018-10-21T22:13:11.258Z,66.33
2018-10-21T22:15:40.614Z,66.30
2018-10-21T22:18:09.070Z,66.32
2018-10-21T22:20:37.705Z,66.26
2018-10-21T22:23:06.320Z,66.19
2018-10-21T22:25:34.836Z,66.73
2018-10-21T22:28:06.191Z,66.38
2018-10-21T22:30:35.772Z,66.75
2018-10-21T22:33:04.480Z,66.62
2018-10-21T22:35:33.035Z,66.76
2018-10-21T22:38:01.616Z,66.97
2018-10-21T22:40:30.061Z,66.83
2018-10-21T22:42:58.667Z,66.90
2018-10-21T22:45:27.248Z,67.23
2018-10-21T22:47:56.197Z,67.33
2018-10-21T22:50:24.720Z,67.15
2018-10-21T22:52:53.380Z,67.30
2018-10-21T22:55:21.840Z,67.00
2018-10-21T22:57:50.974Z,66.99
2018-10-21T23:00:19.614Z,67.33
2018-10-21T23:02:52.186Z,66.93
2018-10-21T23:05:21.513Z,66.92
2018-10-21T23:07:50.461Z,67.06
2018-10-21T23:10:19.672Z,67.15
2018-10-21T23:12:48.767Z,66.77
2018-10-21T23:15:17.842Z,66.82
2018-10-21T23:17:46.700Z,66.70
2018-10-21T23:20:15.338Z,67.00
2018-10-21T23:22:44.682Z,66.86
2018-10-21T23:25:13.719Z,66.79
2018-10-21T23:27:42.897Z,66.86
2018-10-21T23:30:11.693Z,67.04
2018-10-21T23:32:40.367Z,66.95
2018-10-21T23:35:08.977Z,67.03
2018-10-21T23:37:37.823Z,66.89
2018-10-21T23:40:07.641Z,67.28
2018-10-21T23:42:36.817Z,66.83
2018-10-21T23:45:05.880Z,66.87
2018-10-21T23:47:35.116Z,66.78
2018-10-21T23:50:03.696Z,66.79
2018-10-21T23:52:32.283Z,66.16
2018-10-21T23:55:00.809Z,65.79
2018-10-21T23:57:29.320Z,66.36
2018-10-21T23:59:57.991Z,66.26
